sensor_id;sensor_type;location;lat;lon;timestamp;P1;durP1;ratioP1;P2;durP2;ratioP2
3085;SDS011;52812;48.960;9.108;2023-04-05T00:01:25;10.90;;;6.57;;
3085;SDS011;52812;48.960;9.108;2023-04-05T00:03:52;16.17;;;7.97;;
3085;SDS011;52812;48.960;9.108;2023-04-05T00:06:22;11.60;;;7.30;;
3085;SDS011;52812;48.960;9.108;2023-04-05T00:08:56;14.30;;;7.40;;
3085;SDS011;52812;48.960;9.108;2023-04-05T00:11:23;12.10;;;7.10;;
3085;SDS011;52812;48.960;9.108;2023-04-05T00:13:50;9.87;;;6.83;;
3085;SDS011;52812;48.960;9.108;2023-04-05T00:16:16;12.70;;;6.00;;
3085;SDS011;52812;48.960;9.108;2023-04-05T00:18:42;12.63;;;6.90;;
3085;SDS011;52812;48.960;9.108;2023-04-05T00:21:18;20.53;;;6.97;;
3085;SDS011;52812;48.960;9.108;2023-04-05T00:23:46;13.43;;;6.47;;
3085;SDS011;52812;48.960;9.108;2023-04-05T00:26:12;13.13;;;7.40;;
3085;SDS011;52812;48.960;9.108;2023-04-05T00:28:38;12.93;;;6.90;;
3085;SDS011;52812;48.960;9.108;2023-04-05T00:31:04;12.43;;;6.87;;
3085;SDS011;52812;48.960;9.108;2023-04-05T00:33:30;12.60;;;6.90;;
3085;SDS011;52812;48.960;9.108;2023-04-05T00:35:56;14.80;;;7.60;;
3085;SDS011;52812;48.960;9.108;2023-04-05T00:38:21;13.63;;;7.07;;
3085;SDS011;52812;48.960;9.108;2023-04-05T00:40:47;10.80;;;7.00;;
3085;SDS011;52812;48.960;9.108;2023-04-05T00:43:12;13.37;;;7.37;;
3085;SDS011;52812;48.960;9.108;2023-04-05T00:45:38;10.93;;;6.60;;
3085;SDS011;52812;48.960;9.108;2023-04-05T00:48:04;11.47;;;7.93;;
3085;SDS011;52812;48.960;9.108;2023-04-05T00:50:30;17.03;;;7.37;;
3085;SDS011;52812;48.960;9.108;2023-04-05T00:52:56;12.50;;;6.87;;
3085;SDS011;52812;48.960;9.108;2023-04-05T00:55:23;12.73;;;7.70;;
3085;SDS011;52812;48.960;9.108;2023-04-05T00:57:50;12.23;;;7.30;;
3085;SDS011;52812;48.960;9.108;2023-04-05T01:00:17;14.90;;;8.20;;
3085;SDS011;52812;48.960;9.108;2023-04-05T01:02:47;14.03;;;8.43;;
3085;SDS011;52812;48.960;9.108;2023-04-05T01:08:49;13.70;;;6.80;;
3085;SDS011;52812;48.960;9.108;2023-04-05T01:10:58;15.80;;;7.30;;
3085;SDS011;52812;48.960;9.108;2023-04-05T01:13:28;11.93;;;6.90;;
3085;SDS011;52812;48.960;9.108;2023-04-05T01:15:54;12.23;;;7.38;;
3085;SDS011;52812;48.960;9.108;2023-04-05T01:18:20;13.33;;;7.40;;
3085;SDS011;52812;48.960;9.108;2023-04-05T01:20:51;12.33;;;7.40;;
3085;SDS011;52812;48.960;9.108;2023-04-05T01:23:37;14.20;;;7.00;;
3085;SDS011;52812;48.960;9.108;2023-04-05T01:32:06;15.10;;;7.80;;
3085;SDS011;52812;48.960;9.108;2023-04-05T01:34:39;15.93;;;8.13;;
3085;SDS011;52812;48.960;9.108;2023-04-05T01:37:14;14.68;;;7.60;;
3085;SDS011;52812;48.960;9.108;2023-04-05T01:39:43;13.55;;;7.80;;
3085;SDS011;52812;48.960;9.108;2023-04-05T01:42:11;19.42;;;8.60;;
3085;SDS011;52812;48.960;9.108;2023-04-05T01:44:37;15.18;;;8.10;;
3085;SDS011;52812;48.960;9.108;2023-04-05T01:47:03;14.57;;;7.70;;
3085;SDS011;52812;48.960;9.108;2023-04-05T01:49:28;12.50;;;7.13;;
3085;SDS011;52812;48.960;9.108;2023-04-05T01:51:54;13.30;;;7.37;;
3085;SDS011;52812;48.960;9.108;2023-04-05T01:54:20;15.73;;;8.10;;
3085;SDS011;52812;48.960;9.108;2023-04-05T01:56:45;17.30;;;8.07;;
3085;SDS011;52812;48.960;9.108;2023-04-05T01:59:11;12.10;;;7.07;;
3085;SDS011;52812;48.960;9.108;2023-04-05T02:01:36;13.80;;;7.13;;
3085;SDS011;52812;48.960;9.108;2023-04-05T02:04:02;13.83;;;7.90;;
3085;SDS011;52812;48.960;9.108;2023-04-05T02:06:27;12.90;;;7.37;;
3085;SDS011;52812;48.960;9.108;2023-04-05T02:08:54;11.80;;;6.82;;
3085;SDS011;52812;48.960;9.108;2023-04-05T02:11:20;15.17;;;7.60;;
3085;SDS011;52812;48.960;9.108;2023-04-05T02:13:45;13.63;;;7.40;;
3085;SDS011;52812;48.960;9.108;2023-04-05T02:16:11;14.97;;;7.63;;
3085;SDS011;52812;48.960;9.108;2023-04-05T02:18:37;13.10;;;7.40;;
3085;SDS011;52812;48.960;9.108;2023-04-05T02:23:29;12.88;;;7.25;;
3085;SDS011;52812;48.960;9.108;2023-04-05T02:25:55;11.20;;;7.10;;
3085;SDS011;52812;48.960;9.108;2023-04-05T02:28:21;11.02;;;6.82;;
3085;SDS011;52812;48.960;9.108;2023-04-05T02:30:47;11.63;;;7.23;;
3085;SDS011;52812;48.960;9.108;2023-04-05T02:33:12;10.53;;;7.10;;
3085;SDS011;52812;48.960;9.108;2023-04-05T02:35:38;13.00;;;7.30;;
3085;SDS011;52812;48.960;9.108;2023-04-05T02:38:04;12.10;;;7.83;;
3085;SDS011;52812;48.960;9.108;2023-04-05T02:40:30;11.93;;;6.50;;
3085;SDS011;52812;48.960;9.108;2023-04-05T02:42:56;14.82;;;7.50;;
3085;SDS011;52812;48.960;9.108;2023-04-05T02:45:21;12.77;;;7.60;;
3085;SDS011;52812;48.960;9.108;2023-04-05T02:47:47;10.10;;;6.50;;
3085;SDS011;52812;48.960;9.108;2023-04-05T02:50:14;10.23;;;7.05;;
3085;SDS011;52812;48.960;9.108;2023-04-05T02:52:44;11.80;;;6.85;;
3085;SDS011;52812;48.960;9.108;2023-04-05T02:55:10;14.98;;;7.30;;
3085;SDS011;52812;48.960;9.108;2023-04-05T02:57:36;15.50;;;7.80;;
3085;SDS011;52812;48.960;9.108;2023-04-05T03:00:02;11.60;;;7.13;;
3085;SDS011;52812;48.960;9.108;2023-04-05T03:02:29;14.35;;;7.55;;
3085;SDS011;52812;48.960;9.108;2023-04-05T03:04:55;9.93;;;6.70;;
3085;SDS011;52812;48.960;9.108;2023-04-05T03:07:21;11.13;;;6.93;;
3085;SDS011;52812;48.960;9.108;2023-04-05T03:09:49;12.45;;;7.05;;
3085;SDS011;52812;48.960;9.108;2023-04-05T03:12:15;11.23;;;7.03;;
3085;SDS011;52812;48.960;9.108;2023-04-05T03:14:41;13.57;;;6.73;;
3085;SDS011;52812;48.960;9.108;2023-04-05T03:17:06;11.33;;;7.00;;
3085;SDS011;52812;48.960;9.108;2023-04-05T03:19:32;16.00;;;8.00;;
3085;SDS011;52812;48.960;9.108;2023-04-05T03:21:58;13.20;;;7.60;;
3085;SDS011;52812;48.960;9.108;2023-04-05T03:24:23;17.40;;;7.50;;
3085;SDS011;52812;48.960;9.108;2023-04-05T03:26:49;10.70;;;6.60;;
3085;SDS011;52812;48.960;9.108;2023-04-05T03:29:15;13.10;;;7.20;;
3085;SDS011;52812;48.960;9.108;2023-04-05T03:31:41;14.95;;;7.32;;
3085;SDS011;52812;48.960;9.108;2023-04-05T03:34:07;13.45;;;7.82;;
3085;SDS011;52812;48.960;9.108;2023-04-05T03:36:33;13.20;;;6.93;;
3085;SDS011;52812;48.960;9.108;2023-04-05T03:39:06;14.38;;;8.10;;
3085;SDS011;52812;48.960;9.108;2023-04-05T03:41:36;12.77;;;7.20;;
3085;SDS011;52812;48.960;9.108;2023-04-05T03:44:02;15.35;;;7.80;;
3085;SDS011;52812;48.960;9.108;2023-04-05T03:46:28;13.27;;;6.90;;
3085;SDS011;52812;48.960;9.108;2023-04-05T03:48:54;16.53;;;8.20;;
3085;SDS011;52812;48.960;9.108;2023-04-05T03:51:21;12.90;;;7.15;;
3085;SDS011;52812;48.960;9.108;2023-04-05T03:53:46;14.03;;;7.90;;
3085;SDS011;52812;48.960;9.108;2023-04-05T03:56:12;17.23;;;7.87;;
3085;SDS011;52812;48.960;9.108;2023-04-05T03:58:37;12.47;;;7.23;;
3085;SDS011;52812;48.960;9.108;2023-04-05T04:01:03;15.40;;;8.00;;
3085;SDS011;52812;48.960;9.108;2023-04-05T04:03:29;13.83;;;8.10;;
3085;SDS011;52812;48.960;9.108;2023-04-05T04:05:55;13.70;;;8.20;;
3085;SDS011;52812;48.960;9.108;2023-04-05T04:08:21;14.90;;;7.53;;
3085;SDS011;52812;48.960;9.108;2023-04-05T04:10:47;14.02;;;6.80;;
3085;SDS011;52812;48.960;9.108;2023-04-05T04:13:13;13.05;;;7.13;;
3085;SDS011;52812;48.960;9.108;2023-04-05T04:15:39;12.30;;;7.57;;
3085;SDS011;52812;48.960;9.108;2023-04-05T04:18:05;15.60;;;8.20;;
3085;SDS011;52812;48.960;9.108;2023-04-05T04:20:30;17.40;;;8.00;;
3085;SDS011;52812;48.960;9.108;2023-04-05T04:22:56;11.23;;;7.00;;
3085;SDS011;52812;48.960;9.108;2023-04-05T04:25:22;13.25;;;7.30;;
3085;SDS011;52812;48.960;9.108;2023-04-05T04:27:50;13.10;;;7.18;;
3085;SDS011;52812;48.960;9.108;2023-04-05T04:30:17;13.70;;;7.30;;
3085;SDS011;52812;48.960;9.108;2023-04-05T04:32:46;13.43;;;8.25;;
3085;SDS011;52812;48.960;9.108;2023-04-05T04:35:20;9.63;;;6.72;;
3085;SDS011;52812;48.960;9.108;2023-04-05T04:37:51;12.38;;;7.30;;
3085;SDS011;52812;48.960;9.108;2023-04-05T04:40:21;12.85;;;7.40;;
3085;SDS011;52812;48.960;9.108;2023-04-05T04:42:49;15.00;;;7.60;;
3085;SDS011;52812;48.960;9.108;2023-04-05T04:45:15;13.70;;;7.23;;
3085;SDS011;52812;48.960;9.108;2023-04-05T04:47:43;12.63;;;8.13;;
3085;SDS011;52812;48.960;9.108;2023-04-05T04:50:11;17.50;;;8.05;;
3085;SDS011;52812;48.960;9.108;2023-04-05T04:52:37;13.73;;;8.88;;
3085;SDS011;52812;48.960;9.108;2023-04-05T04:55:04;15.02;;;9.30;;
3085;SDS011;52812;48.960;9.108;2023-04-05T04:57:34;13.13;;;8.70;;
3085;SDS011;52812;48.960;9.108;2023-04-05T04:59:59;20.63;;;10.47;;
3085;SDS011;52812;48.960;9.108;2023-04-05T05:02:26;30.13;;;13.13;;
3085;SDS011;52812;48.960;9.108;2023-04-05T05:04:52;22.48;;;11.65;;
3085;SDS011;52812;48.960;9.108;2023-04-05T05:07:18;27.77;;;14.70;;
3085;SDS011;52812;48.960;9.108;2023-04-05T05:09:44;13.40;;;8.30;;
3085;SDS011;52812;48.960;9.108;2023-04-05T05:12:10;15.00;;;8.07;;
3085;SDS011;52812;48.960;9.108;2023-04-05T05:14:35;15.30;;;7.83;;
3085;SDS011;52812;48.960;9.108;2023-04-05T05:17:01;14.70;;;8.90;;
3085;SDS011;52812;48.960;9.108;2023-04-05T05:19:29;14.82;;;8.85;;
3085;SDS011;52812;48.960;9.108;2023-04-05T05:21:55;13.80;;;7.72;;
3085;SDS011;52812;48.960;9.108;2023-04-05T05:24:21;17.63;;;8.87;;
3085;SDS011;52812;48.960;9.108;2023-04-05T05:26:46;14.30;;;7.93;;
3085;SDS011;52812;48.960;9.108;2023-04-05T05:29:12;14.00;;;8.10;;
3085;SDS011;52812;48.960;9.108;2023-04-05T05:31:37;13.27;;;8.10;;
3085;SDS011;52812;48.960;9.108;2023-04-05T05:34:03;13.17;;;7.53;;
3085;SDS011;52812;48.960;9.108;2023-04-05T05:36:30;25.57;;;8.47;;
3085;SDS011;52812;48.960;9.108;2023-04-05T05:38:56;16.53;;;8.27;;
3085;SDS011;52812;48.960;9.108;2023-04-05T05:41:22;12.67;;;8.10;;
3085;SDS011;52812;48.960;9.108;2023-04-05T05:43:47;16.67;;;8.40;;
3085;SDS011;52812;48.960;9.108;2023-04-05T05:46:13;13.93;;;8.23;;
3085;SDS011;52812;48.960;9.108;2023-04-05T05:48:38;13.63;;;8.23;;
3085;SDS011;52812;48.960;9.108;2023-04-05T05:51:05;15.40;;;7.97;;
3085;SDS011;52812;48.960;9.108;2023-04-05T05:53:37;13.37;;;8.77;;
3085;SDS011;52812;48.960;9.108;2023-04-05T05:56:03;14.00;;;7.90;;
3085;SDS011;52812;48.960;9.108;2023-04-05T05:58:30;15.93;;;8.70;;
3085;SDS011;52812;48.960;9.108;2023-04-05T06:00:56;14.10;;;8.00;;
3085;SDS011;52812;48.960;9.108;2023-04-05T06:03:23;11.70;;;7.80;;
3085;SDS011;52812;48.960;9.108;2023-04-05T06:05:53;10.97;;;8.20;;
3085;SDS011;52812;48.960;9.108;2023-04-05T06:08:20;17.03;;;9.47;;
3085;SDS011;52812;48.960;9.108;2023-04-05T06:10:47;11.17;;;7.80;;
3085;SDS011;52812;48.960;9.108;2023-04-05T06:13:13;10.37;;;7.30;;
3085;SDS011;52812;48.960;9.108;2023-04-05T06:15:38;11.97;;;8.00;;
3085;SDS011;52812;48.960;9.108;2023-04-05T06:18:04;9.83;;;7.23;;
3085;SDS011;52812;48.960;9.108;2023-04-05T06:20:30;10.03;;;7.30;;
3085;SDS011;52812;48.960;9.108;2023-04-05T06:22:55;11.07;;;8.43;;
3085;SDS011;52812;48.960;9.108;2023-04-05T06:25:21;9.43;;;6.70;;
3085;SDS011;52812;48.960;9.108;2023-04-05T06:27:46;9.53;;;7.20;;
3085;SDS011;52812;48.960;9.108;2023-04-05T06:30:12;13.20;;;7.40;;
3085;SDS011;52812;48.960;9.108;2023-04-05T06:32:38;11.73;;;7.70;;
3085;SDS011;52812;48.960;9.108;2023-04-05T06:35:04;9.73;;;7.07;;
3085;SDS011;52812;48.960;9.108;2023-04-05T06:37:30;9.90;;;7.43;;
3085;SDS011;52812;48.960;9.108;2023-04-05T06:39:57;14.80;;;7.90;;
3085;SDS011;52812;48.960;9.108;2023-04-05T06:42:23;10.73;;;7.33;;
3085;SDS011;52812;48.960;9.108;2023-04-05T06:44:49;10.03;;;7.53;;
3085;SDS011;52812;48.960;9.108;2023-04-05T06:47:15;9.87;;;7.30;;
3085;SDS011;52812;48.960;9.108;2023-04-05T06:49:40;12.40;;;7.60;;
3085;SDS011;52812;48.960;9.108;2023-04-05T06:52:06;10.40;;;7.37;;
3085;SDS011;52812;48.960;9.108;2023-04-05T06:54:32;13.20;;;7.90;;
3085;SDS011;52812;48.960;9.108;2023-04-05T06:56:58;11.97;;;7.77;;
3085;SDS011;52812;48.960;9.108;2023-04-05T06:59:24;12.37;;;7.67;;
3085;SDS011;52812;48.960;9.108;2023-04-05T07:01:49;10.97;;;7.77;;
3085;SDS011;52812;48.960;9.108;2023-04-05T07:04:15;10.93;;;7.27;;
3085;SDS011;52812;48.960;9.108;2023-04-05T07:06:40;9.03;;;7.20;;
3085;SDS011;52812;48.960;9.108;2023-04-05T07:09:06;11.93;;;7.70;;
3085;SDS011;52812;48.960;9.108;2023-04-05T07:11:31;11.20;;;7.80;;
3085;SDS011;52812;48.960;9.108;2023-04-05T07:13:58;12.50;;;7.60;;
3085;SDS011;52812;48.960;9.108;2023-04-05T07:16:24;10.03;;;7.27;;
3085;SDS011;52812;48.960;9.108;2023-04-05T07:18:49;11.40;;;7.60;;
3085;SDS011;52812;48.960;9.108;2023-04-05T07:21:15;12.80;;;7.97;;
3085;SDS011;52812;48.960;9.108;2023-04-05T07:23:41;12.47;;;8.30;;
3085;SDS011;52812;48.960;9.108;2023-04-05T07:26:07;10.30;;;8.20;;
3085;SDS011;52812;48.960;9.108;2023-04-05T07:28:33;12.30;;;8.30;;
3085;SDS011;52812;48.960;9.108;2023-04-05T07:31:00;11.67;;;8.60;;
3085;SDS011;52812;48.960;9.108;2023-04-05T07:33:26;11.10;;;8.43;;
3085;SDS011;52812;48.960;9.108;2023-04-05T07:35:52;10.17;;;8.30;;
3085;SDS011;52812;48.960;9.108;2023-04-05T07:38:21;14.17;;;8.60;;
3085;SDS011;52812;48.960;9.108;2023-04-05T07:40:47;11.60;;;8.23;;
3085;SDS011;52812;48.960;9.108;2023-04-05T07:43:13;10.67;;;8.00;;
3085;SDS011;52812;48.960;9.108;2023-04-05T07:45:39;12.57;;;8.63;;
3085;SDS011;52812;48.960;9.108;2023-04-05T07:48:05;10.00;;;7.43;;
3085;SDS011;52812;48.960;9.108;2023-04-05T07:50:31;11.70;;;7.73;;
3085;SDS011;52812;48.960;9.108;2023-04-05T07:52:58;10.33;;;7.70;;
3085;SDS011;52812;48.960;9.108;2023-04-05T07:55:23;9.90;;;7.63;;
3085;SDS011;52812;48.960;9.108;2023-04-05T07:57:51;11.63;;;8.23;;
3085;SDS011;52812;48.960;9.108;2023-04-05T08:00:17;10.20;;;7.73;;
3085;SDS011;52812;48.960;9.108;2023-04-05T08:02:43;11.57;;;7.60;;
3085;SDS011;52812;48.960;9.108;2023-04-05T08:05:09;11.27;;;8.07;;
3085;SDS011;52812;48.960;9.108;2023-04-05T08:07:35;9.43;;;7.30;;
3085;SDS011;52812;48.960;9.108;2023-04-05T08:10:00;9.80;;;7.30;;
3085;SDS011;52812;48.960;9.108;2023-04-05T08:12:26;9.93;;;7.27;;
3085;SDS011;52812;48.960;9.108;2023-04-05T08:14:52;9.20;;;7.03;;
3085;SDS011;52812;48.960;9.108;2023-04-05T08:17:17;9.20;;;6.97;;
3085;SDS011;52812;48.960;9.108;2023-04-05T08:19:44;8.97;;;6.80;;
3085;SDS011;52812;48.960;9.108;2023-04-05T08:22:09;9.00;;;7.00;;
3085;SDS011;52812;48.960;9.108;2023-04-05T08:24:35;11.70;;;7.00;;
3085;SDS011;52812;48.960;9.108;2023-04-05T08:27:00;10.27;;;7.40;;
3085;SDS011;52812;48.960;9.108;2023-04-05T08:29:26;11.30;;;7.30;;
3085;SDS011;52812;48.960;9.108;2023-04-05T08:31:54;9.00;;;6.80;;
3085;SDS011;52812;48.960;9.108;2023-04-05T08:34:21;13.43;;;7.10;;
3085;SDS011;52812;48.960;9.108;2023-04-05T08:36:46;8.33;;;6.63;;
3085;SDS011;52812;48.960;9.108;2023-04-05T08:39:12;8.73;;;6.60;;
3085;SDS011;52812;48.960;9.108;2023-04-05T08:41:40;8.67;;;7.07;;
3085;SDS011;52812;48.960;9.108;2023-04-05T08:44:09;8.80;;;6.60;;
3085;SDS011;52812;48.960;9.108;2023-04-05T08:46:35;8.80;;;6.57;;
3085;SDS011;52812;48.960;9.108;2023-04-05T08:49:05;9.03;;;6.93;;
3085;SDS011;52812;48.960;9.108;2023-04-05T08:51:31;7.90;;;6.47;;
3085;SDS011;52812;48.960;9.108;2023-04-05T08:53:58;8.90;;;7.13;;
3085;SDS011;52812;48.960;9.108;2023-04-05T08:56:25;10.77;;;6.80;;
3085;SDS011;52812;48.960;9.108;2023-04-05T08:59:02;10.40;;;6.80;;
3085;SDS011;52812;48.960;9.108;2023-04-05T09:01:32;12.07;;;7.23;;
3085;SDS011;52812;48.960;9.108;2023-04-05T09:04:05;9.17;;;6.37;;
3085;SDS011;52812;48.960;9.108;2023-04-05T09:06:34;9.40;;;6.50;;
3085;SDS011;52812;48.960;9.108;2023-04-05T09:09:00;9.47;;;6.83;;
3085;SDS011;52812;48.960;9.108;2023-04-05T09:11:30;9.00;;;7.10;;
3085;SDS011;52812;48.960;9.108;2023-04-05T09:13:57;9.43;;;6.60;;
3085;SDS011;52812;48.960;9.108;2023-04-05T09:16:23;10.17;;;6.90;;
3085;SDS011;52812;48.960;9.108;2023-04-05T09:18:51;7.83;;;5.90;;
3085;SDS011;52812;48.960;9.108;2023-04-05T09:21:16;8.00;;;6.23;;
3085;SDS011;52812;48.960;9.108;2023-04-05T09:23:50;8.10;;;6.17;;
3085;SDS011;52812;48.960;9.108;2023-04-05T09:26:18;8.67;;;6.00;;
3085;SDS011;52812;48.960;9.108;2023-04-05T09:28:45;12.93;;;7.27;;
3085;SDS011;52812;48.960;9.108;2023-04-05T09:34:03;10.90;;;6.57;;
3085;SDS011;52812;48.960;9.108;2023-04-05T09:36:30;8.27;;;5.90;;
3085;SDS011;52812;48.960;9.108;2023-04-05T09:39:07;8.13;;;6.47;;
3085;SDS011;52812;48.960;9.108;2023-04-05T09:41:33;10.90;;;7.07;;
3085;SDS011;52812;48.960;9.108;2023-04-05T09:44:00;8.23;;;6.20;;
3085;SDS011;52812;48.960;9.108;2023-04-05T09:46:33;8.60;;;6.20;;
3085;SDS011;52812;48.960;9.108;2023-04-05T09:49:01;9.07;;;6.43;;
3085;SDS011;52812;48.960;9.108;2023-04-05T09:51:31;11.43;;;6.67;;
3085;SDS011;52812;48.960;9.108;2023-04-05T09:54:00;8.30;;;6.10;;
3085;SDS011;52812;48.960;9.108;2023-04-05T09:56:30;7.97;;;5.47;;
3085;SDS011;52812;48.960;9.108;2023-04-05T09:59:16;7.33;;;5.60;;
3085;SDS011;52812;48.960;9.108;2023-04-05T10:01:42;6.93;;;6.20;;
3085;SDS011;52812;48.960;9.108;2023-04-05T10:04:08;8.33;;;5.87;;
3085;SDS011;52812;48.960;9.108;2023-04-05T10:06:38;8.27;;;5.70;;
3085;SDS011;52812;48.960;9.108;2023-04-05T10:09:04;8.80;;;6.30;;
3085;SDS011;52812;48.960;9.108;2023-04-05T10:11:33;7.73;;;5.60;;
3085;SDS011;52812;48.960;9.108;2023-04-05T10:14:01;7.17;;;5.47;;
3085;SDS011;52812;48.960;9.108;2023-04-05T10:16:32;7.30;;;5.60;;
3085;SDS011;52812;48.960;9.108;2023-04-05T10:19:03;7.47;;;5.23;;
3085;SDS011;52812;48.960;9.108;2023-04-05T10:21:34;7.60;;;5.70;;
3085;SDS011;52812;48.960;9.108;2023-04-05T10:24:08;7.43;;;5.33;;
3085;SDS011;52812;48.960;9.108;2023-04-05T10:27:31;7.03;;;5.90;;
3085;SDS011;52812;48.960;9.108;2023-04-05T10:30:07;7.87;;;6.03;;
3085;SDS011;52812;48.960;9.108;2023-04-05T10:32:38;6.97;;;5.90;;
3085;SDS011;52812;48.960;9.108;2023-04-05T10:35:16;10.03;;;5.80;;
3085;SDS011;52812;48.960;9.108;2023-04-05T10:37:53;8.73;;;6.17;;
3085;SDS011;52812;48.960;9.108;2023-04-05T10:40:35;8.43;;;6.10;;
3085;SDS011;52812;48.960;9.108;2023-04-05T10:43:02;7.57;;;5.90;;
3085;SDS011;52812;48.960;9.108;2023-04-05T10:45:31;7.90;;;6.40;;
3085;SDS011;52812;48.960;9.108;2023-04-05T10:47:57;8.20;;;6.57;;
3085;SDS011;52812;48.960;9.108;2023-04-05T10:50:30;9.03;;;6.10;;
3085;SDS011;52812;48.960;9.108;2023-04-05T10:52:56;8.43;;;5.90;;
3085;SDS011;52812;48.960;9.108;2023-04-05T10:55:24;9.13;;;6.63;;
3085;SDS011;52812;48.960;9.108;2023-04-05T10:57:50;8.77;;;6.80;;
3085;SDS011;52812;48.960;9.108;2023-04-05T11:00:18;9.40;;;6.47;;
3085;SDS011;52812;48.960;9.108;2023-04-05T11:02:44;9.90;;;6.53;;
3085;SDS011;52812;48.960;9.108;2023-04-05T11:05:28;9.20;;;6.70;;
3085;SDS011;52812;48.960;9.108;2023-04-05T11:07:59;8.70;;;6.87;;
3085;SDS011;52812;48.960;9.108;2023-04-05T11:10:30;8.93;;;6.00;;
3085;SDS011;52812;48.960;9.108;2023-04-05T11:20:40;9.47;;;6.67;;
3085;SDS011;52812;48.960;9.108;2023-04-05T11:23:06;8.60;;;6.53;;
3085;SDS011;52812;48.960;9.108;2023-04-05T11:25:35;8.87;;;6.60;;
3085;SDS011;52812;48.960;9.108;2023-04-05T11:28:05;9.23;;;6.50;;
3085;SDS011;52812;48.960;9.108;2023-04-05T11:30:48;9.80;;;6.40;;
3085;SDS011;52812;48.960;9.108;2023-04-05T11:36:00;10.30;;;7.00;;
3085;SDS011;52812;48.960;9.108;2023-04-05T11:38:27;8.43;;;6.73;;
3085;SDS011;52812;48.960;9.108;2023-04-05T11:40:52;8.20;;;6.17;;
3085;SDS011;52812;48.960;9.108;2023-04-05T11:43:41;9.57;;;6.50;;
3085;SDS011;52812;48.960;9.108;2023-04-05T11:46:07;9.40;;;7.00;;
3085;SDS011;52812;48.960;9.108;2023-04-05T11:48:33;9.40;;;6.50;;
3085;SDS011;52812;48.960;9.108;2023-04-05T11:51:00;9.83;;;7.27;;
3085;SDS011;52812;48.960;9.108;2023-04-05T11:53:36;7.83;;;6.50;;
3085;SDS011;52812;48.960;9.108;2023-04-05T11:56:09;8.77;;;6.80;;
3085;SDS011;52812;48.960;9.108;2023-04-05T11:58:37;10.13;;;7.30;;
3085;SDS011;52812;48.960;9.108;2023-04-05T12:01:04;7.73;;;5.97;;
3085;SDS011;52812;48.960;9.108;2023-04-05T12:03:31;9.70;;;7.00;;
3085;SDS011;52812;48.960;9.108;2023-04-05T12:05:59;9.13;;;6.30;;
3085;SDS011;52812;48.960;9.108;2023-04-05T12:08:39;8.27;;;6.37;;
3085;SDS011;52812;48.960;9.108;2023-04-05T12:11:07;10.50;;;6.80;;
3085;SDS011;52812;48.960;9.108;2023-04-05T12:13:34;8.57;;;6.17;;
3085;SDS011;52812;48.960;9.108;2023-04-05T12:16:01;9.60;;;7.00;;
3085;SDS011;52812;48.960;9.108;2023-04-05T12:18:29;8.70;;;6.70;;
3085;SDS011;52812;48.960;9.108;2023-04-05T12:21:02;8.87;;;6.63;;
3085;SDS011;52812;48.960;9.108;2023-04-05T12:23:30;9.30;;;6.63;;
3085;SDS011;52812;48.960;9.108;2023-04-05T12:25:55;9.60;;;6.80;;
3085;SDS011;52812;48.960;9.108;2023-04-05T12:28:21;8.43;;;6.77;;
3085;SDS011;52812;48.960;9.108;2023-04-05T12:30:48;11.20;;;6.90;;
3085;SDS011;52812;48.960;9.108;2023-04-05T12:33:14;9.13;;;6.60;;
3085;SDS011;52812;48.960;9.108;2023-04-05T12:35:40;8.10;;;6.30;;
3085;SDS011;52812;48.960;9.108;2023-04-05T12:38:06;9.53;;;6.13;;
3085;SDS011;52812;48.960;9.108;2023-04-05T12:40:32;9.17;;;6.40;;
3085;SDS011;52812;48.960;9.108;2023-04-05T12:43:05;9.20;;;6.37;;
3085;SDS011;52812;48.960;9.108;2023-04-05T12:45:32;9.07;;;6.83;;
3085;SDS011;52812;48.960;9.108;2023-04-05T12:48:06;9.90;;;6.90;;
3085;SDS011;52812;48.960;9.108;2023-04-05T12:50:33;10.00;;;6.63;;
3085;SDS011;52812;48.960;9.108;2023-04-05T12:53:00;9.30;;;6.07;;
3085;SDS011;52812;48.960;9.108;2023-04-05T12:55:30;8.47;;;6.60;;
3085;SDS011;52812;48.960;9.108;2023-04-05T12:57:59;9.13;;;6.70;;
3085;SDS011;52812;48.960;9.108;2023-04-05T13:00:27;9.80;;;7.20;;
3085;SDS011;52812;48.960;9.108;2023-04-05T13:02:54;9.80;;;6.50;;
3085;SDS011;52812;48.960;9.108;2023-04-05T13:05:25;9.30;;;6.63;;
3085;SDS011;52812;48.960;9.108;2023-04-05T13:07:52;8.97;;;6.53;;
3085;SDS011;52812;48.960;9.108;2023-04-05T13:10:19;11.60;;;6.63;;
3085;SDS011;52812;48.960;9.108;2023-04-05T13:12:45;9.00;;;6.43;;
3085;SDS011;52812;48.960;9.108;2023-04-05T13:15:12;8.77;;;6.40;;
3085;SDS011;52812;48.960;9.108;2023-04-05T13:17:39;7.27;;;5.90;;
3085;SDS011;52812;48.960;9.108;2023-04-05T13:20:05;8.77;;;6.17;;
3085;SDS011;52812;48.960;9.108;2023-04-05T13:22:31;8.23;;;6.23;;
3085;SDS011;52812;48.960;9.108;2023-04-05T13:24:57;10.43;;;6.40;;
3085;SDS011;52812;48.960;9.108;2023-04-05T13:27:23;7.60;;;6.27;;
3085;SDS011;52812;48.960;9.108;2023-04-05T13:29:49;9.33;;;6.83;;
3085;SDS011;52812;48.960;9.108;2023-04-05T13:32:14;9.03;;;6.80;;
3085;SDS011;52812;48.960;9.108;2023-04-05T13:34:40;9.30;;;6.80;;
3085;SDS011;52812;48.960;9.108;2023-04-05T13:37:05;13.17;;;6.73;;
3085;SDS011;52812;48.960;9.108;2023-04-05T13:39:31;10.93;;;6.60;;
3085;SDS011;52812;48.960;9.108;2023-04-05T13:41:56;7.80;;;6.80;;
3085;SDS011;52812;48.960;9.108;2023-04-05T13:44:23;11.03;;;7.10;;
3085;SDS011;52812;48.960;9.108;2023-04-05T13:46:48;9.40;;;6.23;;
3085;SDS011;52812;48.960;9.108;2023-04-05T13:49:14;9.50;;;6.53;;
3085;SDS011;52812;48.960;9.108;2023-04-05T13:51:39;8.50;;;6.03;;
3085;SDS011;52812;48.960;9.108;2023-04-05T13:54:08;8.80;;;6.80;;
3085;SDS011;52812;48.960;9.108;2023-04-05T13:56:38;8.93;;;6.93;;
3085;SDS011;52812;48.960;9.108;2023-04-05T13:59:03;8.90;;;6.57;;
3085;SDS011;52812;48.960;9.108;2023-04-05T14:01:29;8.63;;;5.70;;
3085;SDS011;52812;48.960;9.108;2023-04-05T14:03:54;11.53;;;6.50;;
3085;SDS011;52812;48.960;9.108;2023-04-05T14:06:20;9.90;;;6.93;;
3085;SDS011;52812;48.960;9.108;2023-04-05T14:08:46;9.50;;;6.63;;
3085;SDS011;52812;48.960;9.108;2023-04-05T14:11:12;8.70;;;6.20;;
3085;SDS011;52812;48.960;9.108;2023-04-05T14:13:38;11.57;;;8.07;;
3085;SDS011;52812;48.960;9.108;2023-04-05T14:16:03;10.40;;;7.20;;
3085;SDS011;52812;48.960;9.108;2023-04-05T14:18:30;8.83;;;6.50;;
3085;SDS011;52812;48.960;9.108;2023-04-05T14:20:55;9.53;;;6.90;;
3085;SDS011;52812;48.960;9.108;2023-04-05T14:23:21;9.60;;;6.80;;
3085;SDS011;52812;48.960;9.108;2023-04-05T14:25:47;9.33;;;6.57;;
3085;SDS011;52812;48.960;9.108;2023-04-05T14:28:13;11.03;;;6.50;;
3085;SDS011;52812;48.960;9.108;2023-04-05T14:30:38;12.00;;;6.90;;
3085;SDS011;52812;48.960;9.108;2023-04-05T14:33:04;10.50;;;6.70;;
3085;SDS011;52812;48.960;9.108;2023-04-05T14:35:30;7.30;;;5.90;;
3085;SDS011;52812;48.960;9.108;2023-04-05T14:37:56;8.30;;;6.43;;
3085;SDS011;52812;48.960;9.108;2023-04-05T14:40:21;9.80;;;6.43;;
3085;SDS011;52812;48.960;9.108;2023-04-05T14:42:47;8.90;;;6.70;;
3085;SDS011;52812;48.960;9.108;2023-04-05T14:45:12;7.20;;;6.07;;
3085;SDS011;52812;48.960;9.108;2023-04-05T14:47:38;8.33;;;5.93;;
3085;SDS011;52812;48.960;9.108;2023-04-05T14:50:04;7.33;;;5.50;;
3085;SDS011;52812;48.960;9.108;2023-04-05T14:52:31;9.20;;;5.60;;
3085;SDS011;52812;48.960;9.108;2023-04-05T14:54:57;6.87;;;6.03;;
3085;SDS011;52812;48.960;9.108;2023-04-05T14:57:23;10.43;;;6.70;;
3085;SDS011;52812;48.960;9.108;2023-04-05T14:59:48;6.93;;;5.80;;
3085;SDS011;52812;48.960;9.108;2023-04-05T15:02:14;8.70;;;6.13;;
3085;SDS011;52812;48.960;9.108;2023-04-05T15:04:40;8.40;;;6.17;;
3085;SDS011;52812;48.960;9.108;2023-04-05T15:07:06;7.00;;;5.90;;
3085;SDS011;52812;48.960;9.108;2023-04-05T15:09:31;8.37;;;5.53;;
3085;SDS011;52812;48.960;9.108;2023-04-05T15:11:57;6.50;;;5.70;;
3085;SDS011;52812;48.960;9.108;2023-04-05T15:14:23;8.30;;;5.80;;
3085;SDS011;52812;48.960;9.108;2023-04-05T15:16:48;8.40;;;6.30;;
3085;SDS011;52812;48.960;9.108;2023-04-05T15:19:14;9.40;;;6.80;;